sensor_id;sensor_type;location;lat;lon;timestamp;P1;durP1;ratioP1;P2;durP2;ratioP2
3257;SDS011;1641;51.306;12.384;2022-12-07T00:01:30;28.13;;;14.15;;
3257;SDS011;1641;51.306;12.384;2022-12-07T00:03:58;24.38;;;12.52;;
3257;SDS011;1641;51.306;12.384;2022-12-07T00:06:36;26.85;;;13.45;;
3257;SDS011;1641;51.306;12.384;2022-12-07T00:09:03;27.30;;;14.10;;
3257;SDS011;1641;51.306;12.384;2022-12-07T00:11:36;28.10;;;14.85;;
3257;SDS011;1641;51.306;12.384;2022-12-07T00:14:03;28.83;;;13.27;;
3257;SDS011;1641;51.306;12.384;2022-12-07T00:16:31;23.50;;;13.50;;
3257;SDS011;1641;51.306;12.384;2022-12-07T00:18:58;25.50;;;12.32;;
3257;SDS011;1641;51.306;12.384;2022-12-07T00:21:25;20.00;;;11.45;;
3257;SDS011;1641;51.306;12.384;2022-12-07T00:23:53;24.85;;;12.85;;
3257;SDS011;1641;51.306;12.384;2022-12-07T00:26:20;22.88;;;12.27;;
3257;SDS011;1641;51.306;12.384;2022-12-07T00:28:48;23.77;;;12.57;;
3257;SDS011;1641;51.306;12.384;2022-12-07T00:31:15;23.88;;;12.80;;
3257;SDS011;1641;51.306;12.384;2022-12-07T00:33:42;24.25;;;13.10;;
3257;SDS011;1641;51.306;12.384;2022-12-07T00:36:09;25.17;;;13.15;;
3257;SDS011;1641;51.306;12.384;2022-12-07T00:38:39;24.23;;;14.82;;
3257;SDS011;1641;51.306;12.384;2022-12-07T00:41:06;24.52;;;13.20;;
3257;SDS011;1641;51.306;12.384;2022-12-07T00:43:36;24.55;;;12.25;;
3257;SDS011;1641;51.306;12.384;2022-12-07T00:46:02;27.67;;;13.85;;
3257;SDS011;1641;51.306;12.384;2022-12-07T00:48:30;27.33;;;13.65;;
3257;SDS011;1641;51.306;12.384;2022-12-07T00:50:56;18.27;;;11.85;;
3257;SDS011;1641;51.306;12.384;2022-12-07T00:53:21;27.33;;;13.93;;
3257;SDS011;1641;51.306;12.384;2022-12-07T00:55:47;22.52;;;13.30;;
3257;SDS011;1641;51.306;12.384;2022-12-07T00:58:12;21.17;;;12.60;;
3257;SDS011;1641;51.306;12.384;2022-12-07T01:00:39;25.65;;;14.52;;
3257;SDS011;1641;51.306;12.384;2022-12-07T01:03:06;23.98;;;12.95;;
3257;SDS011;1641;51.306;12.384;2022-12-07T01:05:32;26.33;;;14.40;;
3257;SDS011;1641;51.306;12.384;2022-12-07T01:07:58;24.55;;;13.70;;
3257;SDS011;1641;51.306;12.384;2022-12-07T01:10:23;24.48;;;13.52;;
3257;SDS011;1641;51.306;12.384;2022-12-07T01:12:49;26.27;;;15.02;;
3257;SDS011;1641;51.306;12.384;2022-12-07T01:15:20;24.33;;;14.85;;
3257;SDS011;1641;51.306;12.384;2022-12-07T01:17:55;25.55;;;13.13;;
3257;SDS011;1641;51.306;12.384;2022-12-07T01:20:20;25.23;;;13.93;;
3257;SDS011;1641;51.306;12.384;2022-12-07T01:22:45;28.63;;;14.82;;
3257;SDS011;1641;51.306;12.384;2022-12-07T01:25:11;26.67;;;13.90;;
3257;SDS011;1641;51.306;12.384;2022-12-07T01:27:39;25.40;;;14.48;;
3257;SDS011;1641;51.306;12.384;2022-12-07T01:30:05;25.27;;;14.57;;
3257;SDS011;1641;51.306;12.384;2022-12-07T01:32:32;25.63;;;14.07;;
3257;SDS011;1641;51.306;12.384;2022-12-07T01:34:58;28.10;;;14.57;;
3257;SDS011;1641;51.306;12.384;2022-12-07T01:37:36;29.33;;;14.38;;
3257;SDS011;1641;51.306;12.384;2022-12-07T01:40:06;28.30;;;14.85;;
3257;SDS011;1641;51.306;12.384;2022-12-07T01:42:33;26.33;;;14.70;;
3257;SDS011;1641;51.306;12.384;2022-12-07T01:45:25;27.67;;;14.25;;
3257;SDS011;1641;51.306;12.384;2022-12-07T01:48:05;31.05;;;14.65;;
3257;SDS011;1641;51.306;12.384;2022-12-07T01:50:34;34.17;;;16.02;;
3257;SDS011;1641;51.306;12.384;2022-12-07T01:53:01;27.33;;;13.82;;
3257;SDS011;1641;51.306;12.384;2022-12-07T01:55:29;29.23;;;14.82;;
3257;SDS011;1641;51.306;12.384;2022-12-07T01:57:55;25.00;;;13.63;;
3257;SDS011;1641;51.306;12.384;2022-12-07T02:00:23;29.33;;;13.45;;
3257;SDS011;1641;51.306;12.384;2022-12-07T02:05:25;26.08;;;14.02;;
3257;SDS011;1641;51.306;12.384;2022-12-07T02:07:51;25.58;;;13.30;;
3257;SDS011;1641;51.306;12.384;2022-12-07T02:10:20;27.92;;;12.43;;
3257;SDS011;1641;51.306;12.384;2022-12-07T02:12:52;25.63;;;14.05;;
3257;SDS011;1641;51.306;12.384;2022-12-07T02:15:21;25.52;;;12.77;;
3257;SDS011;1641;51.306;12.384;2022-12-07T02:18:05;24.30;;;13.00;;
3257;SDS011;1641;51.306;12.384;2022-12-07T02:21:20;27.35;;;13.52;;
3257;SDS011;1641;51.306;12.384;2022-12-07T02:23:57;24.70;;;13.05;;
3257;SDS011;1641;51.306;12.384;2022-12-07T02:30:05;27.05;;;13.55;;
3257;SDS011;1641;51.306;12.384;2022-12-07T02:32:38;27.35;;;13.02;;
3257;SDS011;1641;51.306;12.384;2022-12-07T02:35:06;27.23;;;13.48;;
3257;SDS011;1641;51.306;12.384;2022-12-07T02:37:44;25.83;;;14.10;;
3257;SDS011;1641;51.306;12.384;2022-12-07T02:40:20;24.38;;;12.63;;
3257;SDS011;1641;51.306;12.384;2022-12-07T02:45:56;25.15;;;13.93;;
3257;SDS011;1641;51.306;12.384;2022-12-07T02:48:25;28.20;;;13.65;;
3257;SDS011;1641;51.306;12.384;2022-12-07T02:50:52;27.75;;;14.02;;
3257;SDS011;1641;51.306;12.384;2022-12-07T02:53:32;26.55;;;13.00;;
3257;SDS011;1641;51.306;12.384;2022-12-07T02:56:02;30.33;;;13.05;;
3257;SDS011;1641;51.306;12.384;2022-12-07T02:58:46;21.58;;;12.90;;
3257;SDS011;1641;51.306;12.384;2022-12-07T03:01:26;24.38;;;12.48;;
3257;SDS011;1641;51.306;12.384;2022-12-07T03:04:02;21.73;;;11.52;;
3257;SDS011;1641;51.306;12.384;2022-12-07T03:06:43;22.98;;;11.60;;
3257;SDS011;1641;51.306;12.384;2022-12-07T03:09:23;22.52;;;11.68;;
3257;SDS011;1641;51.306;12.384;2022-12-07T03:12:08;24.02;;;11.38;;
3257;SDS011;1641;51.306;12.384;2022-12-07T03:14:40;23.52;;;12.05;;
3257;SDS011;1641;51.306;12.384;2022-12-07T03:17:14;30.00;;;11.10;;
3257;SDS011;1641;51.306;12.384;2022-12-07T03:19:44;24.40;;;10.65;;
3257;SDS011;1641;51.306;12.384;2022-12-07T03:22:12;22.85;;;11.55;;
3257;SDS011;1641;51.306;12.384;2022-12-07T03:24:40;23.52;;;10.75;;
3257;SDS011;1641;51.306;12.384;2022-12-07T03:27:11;25.42;;;12.00;;
3257;SDS011;1641;51.306;12.384;2022-12-07T03:29:42;21.17;;;11.50;;
3257;SDS011;1641;51.306;12.384;2022-12-07T03:32:30;22.58;;;11.43;;
3257;SDS011;1641;51.306;12.384;2022-12-07T03:35:12;23.30;;;11.30;;
3257;SDS011;1641;51.306;12.384;2022-12-07T03:40:11;25.13;;;11.88;;
3257;SDS011;1641;51.306;12.384;2022-12-07T03:42:41;25.92;;;11.27;;
3257;SDS011;1641;51.306;12.384;2022-12-07T03:45:07;22.98;;;11.00;;
3257;SDS011;1641;51.306;12.384;2022-12-07T03:50:36;17.98;;;10.52;;
3257;SDS011;1641;51.306;12.384;2022-12-07T03:53:18;21.92;;;11.07;;
3257;SDS011;1641;51.306;12.384;2022-12-07T03:55:49;22.30;;;10.18;;
3257;SDS011;1641;51.306;12.384;2022-12-07T03:58:19;19.40;;;10.77;;
3257;SDS011;1641;51.306;12.384;2022-12-07T04:00:47;22.48;;;11.52;;
3257;SDS011;1641;51.306;12.384;2022-12-07T04:03:14;26.42;;;10.98;;
3257;SDS011;1641;51.306;12.384;2022-12-07T04:05:39;23.95;;;10.50;;
3257;SDS011;1641;51.306;12.384;2022-12-07T04:08:05;20.02;;;10.75;;
3257;SDS011;1641;51.306;12.384;2022-12-07T04:10:30;17.70;;;9.95;;
3257;SDS011;1641;51.306;12.384;2022-12-07T04:12:56;20.45;;;10.18;;
3257;SDS011;1641;51.306;12.384;2022-12-07T04:15:21;18.17;;;9.57;;
3257;SDS011;1641;51.306;12.384;2022-12-07T04:17:47;17.73;;;9.50;;
3257;SDS011;1641;51.306;12.384;2022-12-07T04:20:12;15.77;;;9.18;;
3257;SDS011;1641;51.306;12.384;2022-12-07T04:22:41;16.00;;;10.25;;
3257;SDS011;1641;51.306;12.384;2022-12-07T04:25:06;18.33;;;9.68;;
3257;SDS011;1641;51.306;12.384;2022-12-07T04:27:31;14.50;;;9.10;;
3257;SDS011;1641;51.306;12.384;2022-12-07T04:29:57;16.55;;;9.95;;
3257;SDS011;1641;51.306;12.384;2022-12-07T04:32:25;14.25;;;8.35;;
3257;SDS011;1641;51.306;12.384;2022-12-07T04:34:50;19.30;;;9.40;;
3257;SDS011;1641;51.306;12.384;2022-12-07T04:37:16;17.50;;;8.63;;
3257;SDS011;1641;51.306;12.384;2022-12-07T04:39:42;10.23;;;7.60;;
3257;SDS011;1641;51.306;12.384;2022-12-07T04:42:09;15.65;;;8.73;;
3257;SDS011;1641;51.306;12.384;2022-12-07T04:44:38;16.92;;;9.07;;
3257;SDS011;1641;51.306;12.384;2022-12-07T04:47:04;18.20;;;8.52;;
3257;SDS011;1641;51.306;12.384;2022-12-07T04:49:29;12.10;;;7.72;;
3257;SDS011;1641;51.306;12.384;2022-12-07T04:51:55;12.73;;;8.43;;
3257;SDS011;1641;51.306;12.384;2022-12-07T04:54:20;12.35;;;7.93;;
3257;SDS011;1641;51.306;12.384;2022-12-07T04:56:46;13.07;;;8.63;;
3257;SDS011;1641;51.306;12.384;2022-12-07T04:59:12;15.07;;;8.48;;
3257;SDS011;1641;51.306;12.384;2022-12-07T05:01:39;14.52;;;8.63;;
3257;SDS011;1641;51.306;12.384;2022-12-07T05:04:04;14.07;;;8.40;;
3257;SDS011;1641;51.306;12.384;2022-12-07T05:06:30;16.02;;;8.82;;
3257;SDS011;1641;51.306;12.384;2022-12-07T05:08:59;13.70;;;8.15;;
3257;SDS011;1641;51.306;12.384;2022-12-07T05:11:30;13.55;;;9.65;;
3257;SDS011;1641;51.306;12.384;2022-12-07T05:16:38;13.57;;;8.27;;
3257;SDS011;1641;51.306;12.384;2022-12-07T05:19:05;15.73;;;9.27;;
3257;SDS011;1641;51.306;12.384;2022-12-07T05:21:30;12.02;;;8.65;;
3257;SDS011;1641;51.306;12.384;2022-12-07T05:23:59;16.20;;;9.00;;
3257;SDS011;1641;51.306;12.384;2022-12-07T05:26:24;13.30;;;8.70;;
3257;SDS011;1641;51.306;12.384;2022-12-07T05:28:53;14.00;;;9.48;;
3257;SDS011;1641;51.306;12.384;2022-12-07T05:31:26;13.60;;;9.45;;
3257;SDS011;1641;51.306;12.384;2022-12-07T05:33:52;16.05;;;10.20;;
3257;SDS011;1641;51.306;12.384;2022-12-07T05:36:18;15.00;;;9.20;;
3257;SDS011;1641;51.306;12.384;2022-12-07T05:38:43;17.52;;;9.18;;
3257;SDS011;1641;51.306;12.384;2022-12-07T05:41:09;15.90;;;10.02;;
3257;SDS011;1641;51.306;12.384;2022-12-07T05:44:02;15.57;;;9.55;;
3257;SDS011;1641;51.306;12.384;2022-12-07T05:46:27;17.17;;;10.70;;
3257;SDS011;1641;51.306;12.384;2022-12-07T05:48:58;20.08;;;10.82;;
3257;SDS011;1641;51.306;12.384;2022-12-07T05:51:24;18.05;;;11.65;;
3257;SDS011;1641;51.306;12.384;2022-12-07T05:53:49;16.42;;;10.93;;
3257;SDS011;1641;51.306;12.384;2022-12-07T05:56:18;15.38;;;10.27;;
3257;SDS011;1641;51.306;12.384;2022-12-07T05:58:43;18.13;;;10.75;;
3257;SDS011;1641;51.306;12.384;2022-12-07T06:01:27;17.95;;;11.82;;
3257;SDS011;1641;51.306;12.384;2022-12-07T06:03:56;16.50;;;11.18;;
3257;SDS011;1641;51.306;12.384;2022-12-07T06:06:21;15.55;;;9.60;;
3257;SDS011;1641;51.306;12.384;2022-12-07T06:08:46;18.00;;;11.23;;
3257;SDS011;1641;51.306;12.384;2022-12-07T06:11:15;22.00;;;12.43;;
3257;SDS011;1641;51.306;12.384;2022-12-07T06:14:11;19.58;;;12.32;;
3257;SDS011;1641;51.306;12.384;2022-12-07T06:16:37;17.83;;;11.38;;
3257;SDS011;1641;51.306;12.384;2022-12-07T06:19:08;20.98;;;12.30;;
3257;SDS011;1641;51.306;12.384;2022-12-07T06:21:34;25.10;;;13.50;;
3257;SDS011;1641;51.306;12.384;2022-12-07T06:24:02;19.25;;;11.38;;
3257;SDS011;1641;51.306;12.384;2022-12-07T06:26:28;25.30;;;13.30;;
3257;SDS011;1641;51.306;12.384;2022-12-07T06:28:53;20.35;;;12.57;;
3257;SDS011;1641;51.306;12.384;2022-12-07T06:31:18;21.95;;;13.00;;
3257;SDS011;1641;51.306;12.384;2022-12-07T06:33:57;26.17;;;13.95;;
3257;SDS011;1641;51.306;12.384;2022-12-07T06:36:23;21.95;;;13.05;;
3257;SDS011;1641;51.306;12.384;2022-12-07T06:38:51;22.75;;;13.18;;
3257;SDS011;1641;51.306;12.384;2022-12-07T06:41:17;23.13;;;13.65;;
3257;SDS011;1641;51.306;12.384;2022-12-07T06:43:43;24.02;;;13.35;;
3257;SDS011;1641;51.306;12.384;2022-12-07T06:46:08;26.55;;;14.40;;
3257;SDS011;1641;51.306;12.384;2022-12-07T06:48:36;23.55;;;13.23;;
3257;SDS011;1641;51.306;12.384;2022-12-07T06:51:02;21.42;;;13.45;;
3257;SDS011;1641;51.306;12.384;2022-12-07T06:53:30;25.70;;;14.75;;
3257;SDS011;1641;51.306;12.384;2022-12-07T06:55:55;28.77;;;15.50;;
3257;SDS011;1641;51.306;12.384;2022-12-07T06:58:21;30.17;;;15.13;;
3257;SDS011;1641;51.306;12.384;2022-12-07T07:00:47;26.67;;;15.38;;
3257;SDS011;1641;51.306;12.384;2022-12-07T07:03:16;28.65;;;15.38;;
3257;SDS011;1641;51.306;12.384;2022-12-07T07:05:42;36.38;;;15.25;;
3257;SDS011;1641;51.306;12.384;2022-12-07T07:08:14;30.13;;;16.80;;
3257;SDS011;1641;51.306;12.384;2022-12-07T07:13:05;30.25;;;16.05;;
3257;SDS011;1641;51.306;12.384;2022-12-07T07:15:31;31.67;;;16.35;;
3257;SDS011;1641;51.306;12.384;2022-12-07T07:17:57;34.95;;;16.90;;
3257;SDS011;1641;51.306;12.384;2022-12-07T07:20:22;32.08;;;16.27;;
3257;SDS011;1641;51.306;12.384;2022-12-07T07:22:48;35.88;;;17.08;;
3257;SDS011;1641;51.306;12.384;2022-12-07T07:25:13;25.27;;;14.65;;
3257;SDS011;1641;51.306;12.384;2022-12-07T07:27:39;31.08;;;16.67;;
3257;SDS011;1641;51.306;12.384;2022-12-07T07:30:05;28.98;;;16.08;;
3257;SDS011;1641;51.306;12.384;2022-12-07T07:32:31;26.73;;;15.10;;
3257;SDS011;1641;51.306;12.384;2022-12-07T07:34:56;27.10;;;15.05;;
3257;SDS011;1641;51.306;12.384;2022-12-07T07:37:21;26.92;;;16.05;;
3257;SDS011;1641;51.306;12.384;2022-12-07T07:39:47;27.83;;;15.27;;
3257;SDS011;1641;51.306;12.384;2022-12-07T07:42:12;26.20;;;15.50;;
3257;SDS011;1641;51.306;12.384;2022-12-07T07:44:37;27.40;;;15.40;;
3257;SDS011;1641;51.306;12.384;2022-12-07T07:47:02;28.50;;;16.48;;
3257;SDS011;1641;51.306;12.384;2022-12-07T07:49:28;25.58;;;15.18;;
3257;SDS011;1641;51.306;12.384;2022-12-07T07:51:53;24.38;;;15.65;;
3257;SDS011;1641;51.306;12.384;2022-12-07T07:54:19;23.38;;;13.77;;
3257;SDS011;1641;51.306;12.384;2022-12-07T07:56:44;24.40;;;14.90;;
3257;SDS011;1641;51.306;12.384;2022-12-07T07:59:09;27.42;;;14.32;;
3257;SDS011;1641;51.306;12.384;2022-12-07T08:01:34;25.83;;;14.90;;
3257;SDS011;1641;51.306;12.384;2022-12-07T08:04:00;28.42;;;15.98;;
3257;SDS011;1641;51.306;12.384;2022-12-07T08:06:25;25.80;;;14.05;;
3257;SDS011;1641;51.306;12.384;2022-12-07T08:08:51;24.58;;;13.23;;
3257;SDS011;1641;51.306;12.384;2022-12-07T08:11:17;20.63;;;13.00;;
3257;SDS011;1641;51.306;12.384;2022-12-07T08:13:44;24.35;;;13.35;;
3257;SDS011;1641;51.306;12.384;2022-12-07T08:16:11;24.25;;;13.95;;
3257;SDS011;1641;51.306;12.384;2022-12-07T08:18:37;24.58;;;13.23;;
3257;SDS011;1641;51.306;12.384;2022-12-07T08:21:04;37.42;;;19.27;;
3257;SDS011;1641;51.306;12.384;2022-12-07T08:23:31;41.20;;;21.13;;
3257;SDS011;1641;51.306;12.384;2022-12-07T08:26:01;22.67;;;12.80;;
3257;SDS011;1641;51.306;12.384;2022-12-07T08:28:28;36.38;;;17.13;;
3257;SDS011;1641;51.306;12.384;2022-12-07T08:31:07;30.08;;;16.83;;
3257;SDS011;1641;51.306;12.384;2022-12-07T08:33:35;17.35;;;11.65;;
3257;SDS011;1641;51.306;12.384;2022-12-07T08:36:02;22.75;;;14.55;;
3257;SDS011;1641;51.306;12.384;2022-12-07T08:38:28;17.48;;;11.82;;
3257;SDS011;1641;51.306;12.384;2022-12-07T08:40:54;24.10;;;14.10;;
3257;SDS011;1641;51.306;12.384;2022-12-07T08:43:21;19.95;;;12.25;;
3257;SDS011;1641;51.306;12.384;2022-12-07T08:45:48;20.50;;;11.40;;
3257;SDS011;1641;51.306;12.384;2022-12-07T08:48:18;14.52;;;9.32;;
3257;SDS011;1641;51.306;12.384;2022-12-07T08:50:47;17.23;;;9.65;;
3257;SDS011;1641;51.306;12.384;2022-12-07T08:53:12;12.93;;;8.68;;
3257;SDS011;1641;51.306;12.384;2022-12-07T08:55:38;14.65;;;9.13;;
3257;SDS011;1641;51.306;12.384;2022-12-07T08:58:03;12.18;;;7.72;;
3257;SDS011;1641;51.306;12.384;2022-12-07T09:00:28;12.57;;;8.45;;
3257;SDS011;1641;51.306;12.384;2022-12-07T09:02:54;15.00;;;9.10;;
3257;SDS011;1641;51.306;12.384;2022-12-07T09:05:19;12.10;;;7.90;;
3257;SDS011;1641;51.306;12.384;2022-12-07T09:07:46;14.50;;;8.75;;
3257;SDS011;1641;51.306;12.384;2022-12-07T09:10:15;13.70;;;8.73;;
3257;SDS011;1641;51.306;12.384;2022-12-07T09:12:40;16.15;;;9.02;;
3257;SDS011;1641;51.306;12.384;2022-12-07T09:15:06;13.90;;;9.60;;
3257;SDS011;1641;51.306;12.384;2022-12-07T09:17:33;11.98;;;8.57;;
3257;SDS011;1641;51.306;12.384;2022-12-07T09:19:59;15.38;;;8.68;;
3257;SDS011;1641;51.306;12.384;2022-12-07T09:22:28;21.15;;;8.38;;
3257;SDS011;1641;51.306;12.384;2022-12-07T09:24:54;14.23;;;8.60;;
3257;SDS011;1641;51.306;12.384;2022-12-07T09:27:19;17.65;;;9.02;;
3257;SDS011;1641;51.306;12.384;2022-12-07T09:29:45;14.23;;;9.25;;
3257;SDS011;1641;51.306;12.384;2022-12-07T09:32:10;17.60;;;9.82;;
3257;SDS011;1641;51.306;12.384;2022-12-07T09:34:36;15.40;;;8.68;;
3257;SDS011;1641;51.306;12.384;2022-12-07T09:37:01;18.85;;;10.00;;
3257;SDS011;1641;51.306;12.384;2022-12-07T09:39:28;14.27;;;9.23;;
3257;SDS011;1641;51.306;12.384;2022-12-07T09:41:53;16.65;;;8.85;;
3257;SDS011;1641;51.306;12.384;2022-12-07T09:44:23;19.35;;;9.27;;
3257;SDS011;1641;51.306;12.384;2022-12-07T09:46:49;13.60;;;8.40;;
3257;SDS011;1641;51.306;12.384;2022-12-07T09:49:22;14.90;;;9.43;;
3257;SDS011;1641;51.306;12.384;2022-12-07T09:54:35;13.82;;;8.32;;
3257;SDS011;1641;51.306;12.384;2022-12-07T09:57:01;21.98;;;11.68;;
3257;SDS011;1641;51.306;12.384;2022-12-07T09:59:26;15.90;;;9.68;;
3257;SDS011;1641;51.306;12.384;2022-12-07T10:01:52;13.57;;;8.82;;
3257;SDS011;1641;51.306;12.384;2022-12-07T10:04:26;16.55;;;9.55;;
3257;SDS011;1641;51.306;12.384;2022-12-07T10:06:51;13.85;;;9.07;;
3257;SDS011;1641;51.306;12.384;2022-12-07T10:09:18;17.05;;;9.70;;
3257;SDS011;1641;51.306;12.384;2022-12-07T10:11:57;20.02;;;10.20;;
3257;SDS011;1641;51.306;12.384;2022-12-07T10:14:24;16.25;;;8.45;;
3257;SDS011;1641;51.306;12.384;2022-12-07T10:16:52;16.83;;;8.27;;
3257;SDS011;1641;51.306;12.384;2022-12-07T10:21:59;15.13;;;8.23;;
3257;SDS011;1641;51.306;12.384;2022-12-07T10:24:27;14.88;;;8.23;;
3257;SDS011;1641;51.306;12.384;2022-12-07T10:26:53;15.73;;;8.75;;
3257;SDS011;1641;51.306;12.384;2022-12-07T10:29:20;13.52;;;8.43;;
3257;SDS011;1641;51.306;12.384;2022-12-07T10:31:58;22.65;;;9.15;;
3257;SDS011;1641;51.306;12.384;2022-12-07T10:34:24;21.52;;;9.93;;
3257;SDS011;1641;51.306;12.384;2022-12-07T10:36:53;13.10;;;7.00;;
3257;SDS011;1641;51.306;12.384;2022-12-07T10:42:18;13.50;;;7.28;;
3257;SDS011;1641;51.306;12.384;2022-12-07T10:44:45;13.18;;;8.48;;
3257;SDS011;1641;51.306;12.384;2022-12-07T11:01:52;14.65;;;9.02;;
3257;SDS011;1641;51.306;12.384;2022-12-07T11:04:35;14.82;;;7.35;;
3257;SDS011;1641;51.306;12.384;2022-12-07T11:15:17;11.40;;;5.95;;
3257;SDS011;1641;51.306;12.384;2022-12-07T11:18:09;13.00;;;8.30;;
3257;SDS011;1641;51.306;12.384;2022-12-07T11:20:44;12.02;;;8.07;;
3257;SDS011;1641;51.306;12.384;2022-12-07T11:31:15;20.70;;;9.98;;
3257;SDS011;1641;51.306;12.384;2022-12-07T11:33:49;23.27;;;11.27;;
3257;SDS011;1641;51.306;12.384;2022-12-07T11:41:52;28.55;;;12.27;;
3257;SDS011;1641;51.306;12.384;2022-12-07T11:44:42;30.52;;;12.45;;
3257;SDS011;1641;51.306;12.384;2022-12-07T11:50:14;16.35;;;6.75;;
3257;SDS011;1641;51.306;12.384;2022-12-07T11:52:54;16.05;;;6.57;;
3257;SDS011;1641;51.306;12.384;2022-12-07T11:55:26;11.70;;;7.00;;
3257;SDS011;1641;51.306;12.384;2022-12-07T11:58:04;9.80;;;5.80;;
3257;SDS011;1641;51.306;12.384;2022-12-07T12:00:37;10.82;;;6.38;;
3257;SDS011;1641;51.306;12.384;2022-12-07T12:03:07;15.23;;;8.18;;
3257;SDS011;1641;51.306;12.384;2022-12-07T12:05:37;13.75;;;5.95;;
3257;SDS011;1641;51.306;12.384;2022-12-07T12:08:14;10.73;;;4.47;;
3257;SDS011;1641;51.306;12.384;2022-12-07T12:18:53;9.60;;;5.15;;
3257;SDS011;1641;51.306;12.384;2022-12-07T12:21:42;7.70;;;5.13;;
3257;SDS011;1641;51.306;12.384;2022-12-07T12:24:13;7.45;;;3.63;;
3257;SDS011;1641;51.306;12.384;2022-12-07T12:26:48;5.70;;;3.97;;
3257;SDS011;1641;51.306;12.384;2022-12-07T12:29:31;14.20;;;6.05;;
3257;SDS011;1641;51.306;12.384;2022-12-07T12:32:16;6.15;;;3.88;;
3257;SDS011;1641;51.306;12.384;2022-12-07T12:38:01;6.18;;;4.05;;
3257;SDS011;1641;51.306;12.384;2022-12-07T12:42:44;7.22;;;4.20;;
3257;SDS011;1641;51.306;12.384;2022-12-07T12:45:43;7.47;;;4.07;;
3257;SDS011;1641;51.306;12.384;2022-12-07T12:50:29;12.95;;;6.55;;
3257;SDS011;1641;51.306;12.384;2022-12-07T12:53:03;10.07;;;5.13;;
3257;SDS011;1641;51.306;12.384;2022-12-07T12:55:53;6.15;;;3.53;;
3257;SDS011;1641;51.306;12.384;2022-12-07T12:58:41;8.32;;;3.28;;
3257;SDS011;1641;51.306;12.384;2022-12-07T13:03:55;7.85;;;3.75;;
3257;SDS011;1641;51.306;12.384;2022-12-07T13:08:50;6.90;;;3.58;;
3257;SDS011;1641;51.306;12.384;2022-12-07T13:11:17;7.28;;;3.05;;
3257;SDS011;1641;51.306;12.384;2022-12-07T13:13:45;5.38;;;3.15;;
3257;SDS011;1641;51.306;12.384;2022-12-07T13:18:41;3.97;;;2.45;;
3257;SDS011;1641;51.306;12.384;2022-12-07T13:36:58;4.43;;;2.22;;
3257;SDS011;1641;51.306;12.384;2022-12-07T13:39:27;13.68;;;3.85;;
3257;SDS011;1641;51.306;12.384;2022-12-07T13:41:53;7.90;;;3.10;;
3257;SDS011;1641;51.306;12.384;2022-12-07T13:44:22;4.10;;;2.42;;
3257;SDS011;1641;51.306;12.384;2022-12-07T13:51:47;4.53;;;2.72;;
3257;SDS011;1641;51.306;12.384;2022-12-07T13:54:13;10.82;;;2.08;;
3257;SDS011;1641;51.306;12.384;2022-12-07T13:56:40;5.13;;;2.25;;
3257;SDS011;1641;51.306;12.384;2022-12-07T13:59:12;3.83;;;2.28;;
3257;SDS011;1641;51.306;12.384;2022-12-07T14:01:41;3.60;;;2.03;;
3257;SDS011;1641;51.306;12.384;2022-12-07T14:06:52;1.98;;;1.40;;
3257;SDS011;1641;51.306;12.384;2022-12-07T14:09:19;5.75;;;2.70;;
3257;SDS011;1641;51.306;12.384;2022-12-07T14:14:19;7.75;;;3.30;;
3257;SDS011;1641;51.306;12.384;2022-12-07T14:17:09;4.57;;;1.88;;
3257;SDS011;1641;51.306;12.384;2022-12-07T14:19:50;4.90;;;1.77;;
3257;SDS011;1641;51.306;12.384;2022-12-07T14:22:30;4.05;;;2.22;;
3257;SDS011;1641;51.306;12.384;2022-12-07T14:27:47;4.97;;;1.87;;
3257;SDS011;1641;51.306;12.384;2022-12-07T14:30:17;6.45;;;2.70;;
3257;SDS011;1641;51.306;12.384;2022-12-07T14:32:43;3.28;;;1.98;;
3257;SDS011;1641;51.306;12.384;2022-12-07T14:35:13;3.35;;;3.03;;
3257;SDS011;1641;51.306;12.384;2022-12-07T14:37:41;4.35;;;2.17;;
3257;SDS011;1641;51.306;12.384;2022-12-07T14:40:12;6.25;;;2.83;;
3257;SDS011;1641;51.306;12.384;2022-12-07T14:42:45;4.78;;;2.03;;
3257;SDS011;1641;51.306;12.384;2022-12-07T14:45:16;6.50;;;2.28;;
3257;SDS011;1641;51.306;12.384;2022-12-07T14:47:44;8.30;;;2.67;;
3257;SDS011;1641;51.306;12.384;2022-12-07T14:50:14;5.07;;;2.40;;
3257;SDS011;1641;51.306;12.384;2022-12-07T14:52:42;6.80;;;2.40;;
3257;SDS011;1641;51.306;12.384;2022-12-07T14:55:16;5.45;;;2.47;;
3257;SDS011;1641;51.306;12.384;2022-12-07T14:57:51;2.75;;;2.03;;
3257;SDS011;1641;51.306;12.384;2022-12-07T15:00:17;3.75;;;2.25;;
3257;SDS011;1641;51.306;12.384;2022-12-07T15:02:46;5.25;;;2.03;;
3257;SDS011;1641;51.306;12.384;2022-12-07T15:05:16;4.45;;;2.08;;
3257;SDS011;1641;51.306;12.384;2022-12-07T15:07:43;5.72;;;3.22;;
3257;SDS011;1641;51.306;12.384;2022-12-07T15:10:19;4.47;;;2.38;;
3257;SDS011;1641;51.306;12.384;2022-12-07T15:12:46;4.40;;;2.35;;
3257;SDS011;1641;51.306;12.384;2022-12-07T15:15:12;4.43;;;2.10;;
3257;SDS011;1641;51.306;12.384;2022-12-07T15:17:38;3.47;;;2.35;;
3257;SDS011;1641;51.306;12.384;2022-12-07T15:20:04;7.57;;;2.33;;
3257;SDS011;1641;51.306;12.384;2022-12-07T15:22:30;7.32;;;2.00;;
3257;SDS011;1641;51.306;12.384;2022-12-07T15:24:56;11.55;;;3.03;;
3257;SDS011;1641;51.306;12.384;2022-12-07T15:27:22;4.85;;;2.33;;
3257;SDS011;1641;51.306;12.384;2022-12-07T15:29:47;5.85;;;2.65;;
3257;SDS011;1641;51.306;12.384;2022-12-07T15:32:16;6.20;;;2.65;;
3257;SDS011;1641;51.306;12.384;2022-12-07T15:34:41;3.85;;;2.35;;
3257;SDS011;1641;51.306;12.384;2022-12-07T15:37:07;4.72;;;2.30;;
3257;SDS011;1641;51.306;12.384;2022-12-07T15:39:32;5.78;;;2.38;;
3257;SDS011;1641;51.306;12.384;2022-12-07T15:42:04;6.72;;;2.13;;
3257;SDS011;1641;51.306;12.384;2022-12-07T15:47:29;6.22;;;2.38;;
3257;SDS011;1641;51.306;12.384;2022-12-07T15:50:06;4.78;;;2.00;;
3257;SDS011;1641;51.306;12.384;2022-12-07T15:52:42;5.60;;;2.60;;
3257;SDS011;1641;51.306;12.384;2022-12-07T15:55:09;11.15;;;2.92;;
3257;SDS011;1641;51.306;12.384;2022-12-07T15:57:35;7.22;;;3.25;;
3257;SDS011;1641;51.306;12.384;2022-12-07T16:00:02;5.55;;;2.88;;
3257;SDS011;1641;51.306;12.384;2022-12-07T16:02:48;3.75;;;2.78;;
3257;SDS011;1641;51.306;12.384;2022-12-07T16:05:13;10.90;;;3.10;;
3257;SDS011;1641;51.306;12.384;2022-12-07T16:07:39;8.32;;;3.38;;
3257;SDS011;1641;51.306;12.384;2022-12-07T16:10:04;10.70;;;3.55;;
3257;SDS011;1641;51.306;12.384;2022-12-07T16:12:33;4.85;;;2.65;;
3257;SDS011;1641;51.306;12.384;2022-12-07T16:15:17;11.55;;;4.15;;
3257;SDS011;1641;51.306;12.384;2022-12-07T16:17:42;8.02;;;2.60;;
3257;SDS011;1641;51.306;12.384;2022-12-07T16:20:07;4.28;;;2.63;;
3257;SDS011;1641;51.306;12.384;2022-12-07T16:22:52;5.80;;;2.42;;
3257;SDS011;1641;51.306;12.384;2022-12-07T16:25:18;5.25;;;2.45;;
3257;SDS011;1641;51.306;12.384;2022-12-07T16:27:43;6.75;;;3.13;;
3257;SDS011;1641;51.306;12.384;2022-12-07T16:30:12;7.75;;;2.97;;
3257;SDS011;1641;51.306;12.384;2022-12-07T16:32:38;6.10;;;2.90;;
3257;SDS011;1641;51.306;12.384;2022-12-07T16:35:04;6.85;;;3.75;;
3257;SDS011;1641;51.306;12.384;2022-12-07T16:37:29;7.90;;;4.45;;
3257;SDS011;1641;51.306;12.384;2022-12-07T16:39:57;9.18;;;5.50;;
3257;SDS011;1641;51.306;12.384;2022-12-07T16:42:23;11.68;;;5.85;;
3257;SDS011;1641;51.306;12.384;2022-12-07T16:44:48;7.65;;;5.03;;
3257;SDS011;1641;51.306;12.384;2022-12-07T16:47:13;11.88;;;6.20;;
3257;SDS011;1641;51.306;12.384;2022-12-07T16:49:38;10.48;;;5.90;;
3257;SDS011;1641;51.306;12.384;2022-12-07T16:52:04;21.95;;;11.43;;
3257;SDS011;1641;51.306;12.384;2022-12-07T16:54:29;22.90;;;13.50;;
3257;SDS011;1641;51.306;12.384;2022-12-07T16:56:58;32.53;;;19.05;;
3257;SDS011;1641;51.306;12.384;2022-12-07T16:59:23;17.10;;;11.98;;